sensor_id;sensor_type;location;lat;lon;timestamp;P1;durP1;ratioP1;P2;durP2;ratioP2
26098;SDS011;13860;52.370;6.764;2023-02-03T00:02:38;20.30;;;7.13;;
26098;SDS011;13860;52.370;6.764;2023-02-03T00:05:44;18.67;;;6.65;;
26098;SDS011;13860;52.370;6.764;2023-02-03T00:08:51;15.05;;;6.88;;
26098;SDS011;13860;52.370;6.764;2023-02-03T00:11:58;14.25;;;6.05;;
26098;SDS011;13860;52.370;6.764;2023-02-03T00:15:04;17.70;;;6.00;;
26098;SDS011;13860;52.370;6.764;2023-02-03T00:18:08;19.52;;;6.25;;
26098;SDS011;13860;52.370;6.764;2023-02-03T00:21:16;15.07;;;5.70;;
26098;SDS011;13860;52.370;6.764;2023-02-03T00:24:20;21.95;;;6.18;;
26098;SDS011;13860;52.370;6.764;2023-02-03T00:27:26;23.23;;;6.40;;
26098;SDS011;13860;52.370;6.764;2023-02-03T00:30:30;21.10;;;7.63;;
26098;SDS011;13860;52.370;6.764;2023-02-03T00:33:37;20.33;;;5.50;;
26098;SDS011;13860;52.370;6.764;2023-02-03T00:36:43;18.50;;;5.25;;
26098;SDS011;13860;52.370;6.764;2023-02-03T00:39:50;22.95;;;5.80;;
26098;SDS011;13860;52.370;6.764;2023-02-03T00:42:54;18.25;;;5.68;;
26098;SDS011;13860;52.370;6.764;2023-02-03T00:46:00;17.70;;;6.10;;
26098;SDS011;13860;52.370;6.764;2023-02-03T00:52:12;26.80;;;5.78;;
26098;SDS011;13860;52.370;6.764;2023-02-03T00:55:16;13.77;;;6.10;;
26098;SDS011;13860;52.370;6.764;2023-02-03T00:58:24;16.65;;;5.72;;
26098;SDS011;13860;52.370;6.764;2023-02-03T01:01:27;16.05;;;5.50;;
26098;SDS011;13860;52.370;6.764;2023-02-03T01:04:33;18.15;;;5.60;;
26098;SDS011;13860;52.370;6.764;2023-02-03T01:07:39;19.08;;;5.60;;
26098;SDS011;13860;52.370;6.764;2023-02-03T01:10:45;24.95;;;6.10;;
26098;SDS011;13860;52.370;6.764;2023-02-03T01:13:49;14.95;;;6.10;;
26098;SDS011;13860;52.370;6.764;2023-02-03T01:16:56;21.35;;;7.35;;
26098;SDS011;13860;52.370;6.764;2023-02-03T01:20:00;22.63;;;6.40;;
26098;SDS011;13860;52.370;6.764;2023-02-03T01:23:08;22.20;;;6.60;;
26098;SDS011;13860;52.370;6.764;2023-02-03T01:26:16;20.60;;;6.47;;
26098;SDS011;13860;52.370;6.764;2023-02-03T01:29:23;11.38;;;5.28;;
26098;SDS011;13860;52.370;6.764;2023-02-03T01:35:33;24.25;;;6.15;;
26098;SDS011;13860;52.370;6.764;2023-02-03T01:38:39;26.13;;;6.15;;
26098;SDS011;13860;52.370;6.764;2023-02-03T01:41:48;15.43;;;5.97;;
26098;SDS011;13860;52.370;6.764;2023-02-03T01:44:52;15.73;;;6.00;;
26098;SDS011;13860;52.370;6.764;2023-02-03T01:47:58;25.02;;;6.63;;
26098;SDS011;13860;52.370;6.764;2023-02-03T01:51:02;16.23;;;5.47;;
26098;SDS011;13860;52.370;6.764;2023-02-03T01:54:12;22.83;;;6.28;;
26098;SDS011;13860;52.370;6.764;2023-02-03T01:57:22;22.95;;;6.10;;
26098;SDS011;13860;52.370;6.764;2023-02-03T02:00:31;21.67;;;6.18;;
26098;SDS011;13860;52.370;6.764;2023-02-03T02:03:36;16.27;;;5.65;;
26098;SDS011;13860;52.370;6.764;2023-02-03T02:06:45;18.88;;;5.22;;
26098;SDS011;13860;52.370;6.764;2023-02-03T02:09:53;19.42;;;5.15;;
26098;SDS011;13860;52.370;6.764;2023-02-03T02:13:00;22.33;;;5.32;;
26098;SDS011;13860;52.370;6.764;2023-02-03T02:16:07;19.13;;;5.70;;
26098;SDS011;13860;52.370;6.764;2023-02-03T02:19:24;17.67;;;5.13;;
26098;SDS011;13860;52.370;6.764;2023-02-03T02:22:49;20.95;;;5.32;;
26098;SDS011;13860;52.370;6.764;2023-02-03T02:29:55;23.15;;;6.20;;
26098;SDS011;13860;52.370;6.764;2023-02-03T02:33:26;16.70;;;4.53;;
26098;SDS011;13860;52.370;6.764;2023-02-03T02:36:41;16.35;;;4.43;;
26098;SDS011;13860;52.370;6.764;2023-02-03T02:39:57;15.93;;;5.05;;
26098;SDS011;13860;52.370;6.764;2023-02-03T02:43:08;18.42;;;4.25;;
26098;SDS011;13860;52.370;6.764;2023-02-03T02:46:19;13.07;;;4.75;;
26098;SDS011;13860;52.370;6.764;2023-02-03T02:49:31;16.10;;;4.65;;
26098;SDS011;13860;52.370;6.764;2023-02-03T02:52:42;22.20;;;4.63;;
26098;SDS011;13860;52.370;6.764;2023-02-03T02:55:48;12.65;;;4.00;;
26098;SDS011;13860;52.370;6.764;2023-02-03T02:58:58;10.07;;;3.63;;
26098;SDS011;13860;52.370;6.764;2023-02-03T03:02:04;16.83;;;4.55;;
26098;SDS011;13860;52.370;6.764;2023-02-03T03:05:12;10.52;;;4.13;;
26098;SDS011;13860;52.370;6.764;2023-02-03T03:08:22;9.57;;;3.95;;
26098;SDS011;13860;52.370;6.764;2023-02-03T03:11:34;13.20;;;3.58;;
26098;SDS011;13860;52.370;6.764;2023-02-03T03:14:44;11.07;;;3.80;;
26098;SDS011;13860;52.370;6.764;2023-02-03T03:17:53;11.50;;;3.33;;
26098;SDS011;13860;52.370;6.764;2023-02-03T03:21:02;19.65;;;3.35;;
26098;SDS011;13860;52.370;6.764;2023-02-03T03:24:10;9.65;;;3.25;;
26098;SDS011;13860;52.370;6.764;2023-02-03T03:27:19;15.25;;;2.70;;
26098;SDS011;13860;52.370;6.764;2023-02-03T03:30:28;12.05;;;2.95;;
26098;SDS011;13860;52.370;6.764;2023-02-03T03:33:37;18.40;;;2.80;;
26098;SDS011;13860;52.370;6.764;2023-02-03T03:36:45;12.20;;;2.30;;
26098;SDS011;13860;52.370;6.764;2023-02-03T03:39:54;9.15;;;2.20;;
26098;SDS011;13860;52.370;6.764;2023-02-03T03:43:02;12.77;;;2.03;;
26098;SDS011;13860;52.370;6.764;2023-02-03T03:46:14;17.58;;;2.90;;
26098;SDS011;13860;52.370;6.764;2023-02-03T03:49:24;8.88;;;2.35;;
26098;SDS011;13860;52.370;6.764;2023-02-03T03:52:33;16.95;;;2.42;;
26098;SDS011;13860;52.370;6.764;2023-02-03T03:55:41;13.77;;;2.60;;
26098;SDS011;13860;52.370;6.764;2023-02-03T03:58:49;10.18;;;1.95;;
26098;SDS011;13860;52.370;6.764;2023-02-03T04:01:57;14.25;;;2.50;;
26098;SDS011;13860;52.370;6.764;2023-02-03T04:05:04;19.17;;;2.58;;
26098;SDS011;13860;52.370;6.764;2023-02-03T04:08:14;11.77;;;2.10;;
26098;SDS011;13860;52.370;6.764;2023-02-03T04:11:18;10.55;;;2.40;;
26098;SDS011;13860;52.370;6.764;2023-02-03T04:14:37;12.60;;;2.63;;
26098;SDS011;13860;52.370;6.764;2023-02-03T04:17:40;16.17;;;2.40;;
26098;SDS011;13860;52.370;6.764;2023-02-03T04:20:46;10.90;;;2.88;;
26098;SDS011;13860;52.370;6.764;2023-02-03T04:23:52;11.00;;;2.35;;
26098;SDS011;13860;52.370;6.764;2023-02-03T04:26:58;8.88;;;2.15;;
26098;SDS011;13860;52.370;6.764;2023-02-03T04:30:06;9.20;;;1.90;;
26098;SDS011;13860;52.370;6.764;2023-02-03T04:33:14;13.88;;;2.08;;
26098;SDS011;13860;52.370;6.764;2023-02-03T04:36:17;13.32;;;2.17;;
26098;SDS011;13860;52.370;6.764;2023-02-03T04:39:25;10.65;;;2.05;;
26098;SDS011;13860;52.370;6.764;2023-02-03T04:42:29;8.82;;;1.85;;
26098;SDS011;13860;52.370;6.764;2023-02-03T04:45:35;11.43;;;2.00;;
26098;SDS011;13860;52.370;6.764;2023-02-03T04:48:39;12.43;;;2.05;;
26098;SDS011;13860;52.370;6.764;2023-02-03T04:51:47;7.80;;;1.70;;
26098;SDS011;13860;52.370;6.764;2023-02-03T04:54:53;5.72;;;1.60;;
26098;SDS011;13860;52.370;6.764;2023-02-03T04:57:59;8.63;;;2.13;;
26098;SDS011;13860;52.370;6.764;2023-02-03T05:01:07;11.32;;;1.98;;
26098;SDS011;13860;52.370;6.764;2023-02-03T05:04:13;11.38;;;2.83;;
26098;SDS011;13860;52.370;6.764;2023-02-03T05:10:24;17.95;;;2.00;;
26098;SDS011;13860;52.370;6.764;2023-02-03T05:13:29;7.30;;;1.60;;
26098;SDS011;13860;52.370;6.764;2023-02-03T05:16:35;11.60;;;1.88;;
26098;SDS011;13860;52.370;6.764;2023-02-03T05:19:38;15.00;;;1.98;;
26098;SDS011;13860;52.370;6.764;2023-02-03T05:22:44;12.30;;;2.10;;
26098;SDS011;13860;52.370;6.764;2023-02-03T05:25:50;8.15;;;2.67;;
26098;SDS011;13860;52.370;6.764;2023-02-03T05:28:56;5.97;;;1.65;;
26098;SDS011;13860;52.370;6.764;2023-02-03T05:32:00;13.35;;;2.05;;
26098;SDS011;13860;52.370;6.764;2023-02-03T05:35:06;9.35;;;2.08;;
26098;SDS011;13860;52.370;6.764;2023-02-03T05:38:10;8.88;;;1.98;;
26098;SDS011;13860;52.370;6.764;2023-02-03T05:41:18;12.98;;;2.20;;
26098;SDS011;13860;52.370;6.764;2023-02-03T05:44:35;10.00;;;2.60;;
26098;SDS011;13860;52.370;6.764;2023-02-03T05:47:41;5.65;;;1.60;;
26098;SDS011;13860;52.370;6.764;2023-02-03T05:53:50;9.18;;;1.63;;
26098;SDS011;13860;52.370;6.764;2023-02-03T05:56:57;17.42;;;2.20;;
26098;SDS011;13860;52.370;6.764;2023-02-03T06:00:03;13.60;;;2.90;;
26098;SDS011;13860;52.370;6.764;2023-02-03T06:03:12;10.32;;;2.20;;
26098;SDS011;13860;52.370;6.764;2023-02-03T06:06:18;6.00;;;1.90;;
26098;SDS011;13860;52.370;6.764;2023-02-03T06:09:22;14.07;;;2.25;;
26098;SDS011;13860;52.370;6.764;2023-02-03T06:12:30;7.10;;;1.83;;
26098;SDS011;13860;52.370;6.764;2023-02-03T06:15:34;9.95;;;2.47;;
26098;SDS011;13860;52.370;6.764;2023-02-03T06:18:40;9.57;;;2.33;;
26098;SDS011;13860;52.370;6.764;2023-02-03T06:21:44;6.32;;;2.17;;
26098;SDS011;13860;52.370;6.764;2023-02-03T06:24:50;10.93;;;2.47;;
26098;SDS011;13860;52.370;6.764;2023-02-03T06:27:55;9.05;;;2.45;;
26098;SDS011;13860;52.370;6.764;2023-02-03T06:31:01;5.63;;;1.73;;
26098;SDS011;13860;52.370;6.764;2023-02-03T06:34:05;9.63;;;2.25;;
26098;SDS011;13860;52.370;6.764;2023-02-03T06:37:11;11.40;;;1.85;;
26098;SDS011;13860;52.370;6.764;2023-02-03T06:43:23;10.95;;;2.15;;
26098;SDS011;13860;52.370;6.764;2023-02-03T06:46:26;6.20;;;1.95;;
26098;SDS011;13860;52.370;6.764;2023-02-03T06:49:33;10.15;;;2.28;;
26098;SDS011;13860;52.370;6.764;2023-02-03T06:52:36;10.20;;;3.03;;
26098;SDS011;13860;52.370;6.764;2023-02-03T06:55:42;11.60;;;2.00;;
26098;SDS011;13860;52.370;6.764;2023-02-03T06:58:49;8.82;;;2.20;;
26098;SDS011;13860;52.370;6.764;2023-02-03T07:01:55;10.32;;;2.47;;
26098;SDS011;13860;52.370;6.764;2023-02-03T07:08:05;10.18;;;2.28;;
26098;SDS011;13860;52.370;6.764;2023-02-03T07:11:08;8.50;;;2.40;;
26098;SDS011;13860;52.370;6.764;2023-02-03T07:14:16;14.65;;;2.45;;
26098;SDS011;13860;52.370;6.764;2023-02-03T07:17:20;14.27;;;2.85;;
26098;SDS011;13860;52.370;6.764;2023-02-03T07:20:26;10.68;;;2.20;;
26098;SDS011;13860;52.370;6.764;2023-02-03T07:23:32;10.55;;;2.50;;
26098;SDS011;13860;52.370;6.764;2023-02-03T07:26:38;10.07;;;2.25;;
26098;SDS011;13860;52.370;6.764;2023-02-03T07:29:44;12.63;;;2.50;;
26098;SDS011;13860;52.370;6.764;2023-02-03T07:32:51;10.02;;;2.33;;
26098;SDS011;13860;52.370;6.764;2023-02-03T07:35:56;9.70;;;2.22;;
26098;SDS011;13860;52.370;6.764;2023-02-03T07:39:04;7.32;;;2.25;;
26098;SDS011;13860;52.370;6.764;2023-02-03T07:45:22;29.83;;;4.07;;
26098;SDS011;13860;52.370;6.764;2023-02-03T07:48:26;12.02;;;2.70;;
26098;SDS011;13860;52.370;6.764;2023-02-03T07:51:32;11.65;;;3.15;;
26098;SDS011;13860;52.370;6.764;2023-02-03T07:54:36;12.43;;;2.38;;
26098;SDS011;13860;52.370;6.764;2023-02-03T07:57:42;10.88;;;2.47;;
26098;SDS011;13860;52.370;6.764;2023-02-03T08:00:47;15.45;;;2.15;;
26098;SDS011;13860;52.370;6.764;2023-02-03T08:03:53;16.10;;;2.55;;
26098;SDS011;13860;52.370;6.764;2023-02-03T08:06:57;12.73;;;2.35;;
26098;SDS011;13860;52.370;6.764;2023-02-03T08:10:03;7.90;;;2.45;;
26098;SDS011;13860;52.370;6.764;2023-02-03T08:13:08;16.17;;;2.13;;
26098;SDS011;13860;52.370;6.764;2023-02-03T08:16:16;14.70;;;2.22;;
26098;SDS011;13860;52.370;6.764;2023-02-03T08:19:19;8.20;;;2.22;;
26098;SDS011;13860;52.370;6.764;2023-02-03T08:22:29;5.93;;;1.80;;
26098;SDS011;13860;52.370;6.764;2023-02-03T08:25:33;13.68;;;2.28;;
26098;SDS011;13860;52.370;6.764;2023-02-03T08:28:39;15.82;;;1.85;;
26098;SDS011;13860;52.370;6.764;2023-02-03T08:31:44;15.90;;;2.55;;
26098;SDS011;13860;52.370;6.764;2023-02-03T08:34:51;9.35;;;2.33;;
26098;SDS011;13860;52.370;6.764;2023-02-03T08:37:56;10.43;;;2.40;;
26098;SDS011;13860;52.370;6.764;2023-02-03T08:41:06;13.45;;;2.83;;
26098;SDS011;13860;52.370;6.764;2023-02-03T08:44:11;18.88;;;3.25;;
26098;SDS011;13860;52.370;6.764;2023-02-03T08:47:20;6.03;;;2.00;;
26098;SDS011;13860;52.370;6.764;2023-02-03T08:50:24;11.15;;;2.15;;
26098;SDS011;13860;52.370;6.764;2023-02-03T08:53:30;10.82;;;1.83;;
26098;SDS011;13860;52.370;6.764;2023-02-03T08:56:34;8.43;;;2.10;;
26098;SDS011;13860;52.370;6.764;2023-02-03T08:59:41;10.02;;;2.22;;
26098;SDS011;13860;52.370;6.764;2023-02-03T09:02:47;10.57;;;2.30;;
26098;SDS011;13860;52.370;6.764;2023-02-03T09:05:53;12.40;;;2.45;;
26098;SDS011;13860;52.370;6.764;2023-02-03T09:12:04;7.88;;;2.00;;
26098;SDS011;13860;52.370;6.764;2023-02-03T09:15:09;16.02;;;2.70;;
26098;SDS011;13860;52.370;6.764;2023-02-03T09:18:16;14.55;;;3.20;;
26098;SDS011;13860;52.370;6.764;2023-02-03T09:21:21;14.15;;;2.40;;
26098;SDS011;13860;52.370;6.764;2023-02-03T09:24:42;6.78;;;2.00;;
26098;SDS011;13860;52.370;6.764;2023-02-03T09:27:48;12.85;;;2.20;;
26098;SDS011;13860;52.370;6.764;2023-02-03T09:30:58;13.45;;;2.35;;
26098;SDS011;13860;52.370;6.764;2023-02-03T09:34:04;8.20;;;1.95;;
26098;SDS011;13860;52.370;6.764;2023-02-03T09:37:10;7.72;;;2.33;;
26098;SDS011;13860;52.370;6.764;2023-02-03T09:43:28;16.67;;;2.75;;
26098;SDS011;13860;52.370;6.764;2023-02-03T09:46:39;8.15;;;2.50;;
26098;SDS011;13860;52.370;6.764;2023-02-03T09:49:49;13.43;;;2.33;;
26098;SDS011;13860;52.370;6.764;2023-02-03T09:52:56;12.52;;;3.08;;
26098;SDS011;13860;52.370;6.764;2023-02-03T09:56:03;9.82;;;2.08;;
26098;SDS011;13860;52.370;6.764;2023-02-03T09:59:07;11.38;;;1.90;;
26098;SDS011;13860;52.370;6.764;2023-02-03T10:05:57;16.98;;;2.40;;
26098;SDS011;13860;52.370;6.764;2023-02-03T10:09:22;14.65;;;2.17;;
26098;SDS011;13860;52.370;6.764;2023-02-03T10:12:44;9.30;;;2.30;;
26098;SDS011;13860;52.370;6.764;2023-02-03T10:16:03;24.17;;;3.78;;
26098;SDS011;13860;52.370;6.764;2023-02-03T10:19:21;11.85;;;2.15;;
26098;SDS011;13860;52.370;6.764;2023-02-03T10:22:33;18.50;;;2.70;;
26098;SDS011;13860;52.370;6.764;2023-02-03T10:25:43;17.17;;;3.03;;
26098;SDS011;13860;52.370;6.764;2023-02-03T10:29:01;11.90;;;2.42;;
26098;SDS011;13860;52.370;6.764;2023-02-03T10:32:10;11.68;;;2.63;;
26098;SDS011;13860;52.370;6.764;2023-02-03T10:35:17;15.63;;;2.30;;
26098;SDS011;13860;52.370;6.764;2023-02-03T10:38:27;18.13;;;2.63;;
26098;SDS011;13860;52.370;6.764;2023-02-03T10:41:42;16.88;;;3.20;;
26098;SDS011;13860;52.370;6.764;2023-02-03T10:44:48;8.80;;;2.47;;
26098;SDS011;13860;52.370;6.764;2023-02-03T10:47:57;14.13;;;2.90;;
26098;SDS011;13860;52.370;6.764;2023-02-03T10:51:02;11.38;;;2.70;;
26098;SDS011;13860;52.370;6.764;2023-02-03T10:54:24;13.73;;;2.15;;
26098;SDS011;13860;52.370;6.764;2023-02-03T10:57:30;19.10;;;2.97;;
26098;SDS011;13860;52.370;6.764;2023-02-03T11:00:41;18.10;;;3.65;;
26098;SDS011;13860;52.370;6.764;2023-02-03T11:03:52;19.15;;;2.83;;
26098;SDS011;13860;52.370;6.764;2023-02-03T11:07:05;17.25;;;3.15;;
26098;SDS011;13860;52.370;6.764;2023-02-03T11:10:28;18.55;;;2.85;;
26098;SDS011;13860;52.370;6.764;2023-02-03T11:13:38;17.05;;;4.32;;
26098;SDS011;13860;52.370;6.764;2023-02-03T11:19:49;13.70;;;2.78;;
26098;SDS011;13860;52.370;6.764;2023-02-03T11:22:55;25.08;;;3.55;;
26098;SDS011;13860;52.370;6.764;2023-02-03T11:26:10;17.25;;;2.95;;
26098;SDS011;13860;52.370;6.764;2023-02-03T11:29:17;16.58;;;3.45;;
26098;SDS011;13860;52.370;6.764;2023-02-03T11:32:27;21.40;;;3.97;;
26098;SDS011;13860;52.370;6.764;2023-02-03T11:35:35;17.58;;;3.10;;
26098;SDS011;13860;52.370;6.764;2023-02-03T11:38:42;25.13;;;3.67;;
26098;SDS011;13860;52.370;6.764;2023-02-03T11:41:48;20.85;;;3.38;;
26098;SDS011;13860;52.370;6.764;2023-02-03T11:45:02;27.33;;;4.60;;
26098;SDS011;13860;52.370;6.764;2023-02-03T11:48:23;21.20;;;3.65;;
26098;SDS011;13860;52.370;6.764;2023-02-03T11:51:35;22.83;;;3.58;;
26098;SDS011;13860;52.370;6.764;2023-02-03T11:54:46;18.17;;;3.22;;
26098;SDS011;13860;52.370;6.764;2023-02-03T11:58:07;21.48;;;3.83;;
26098;SDS011;13860;52.370;6.764;2023-02-03T12:01:27;21.60;;;3.35;;
26098;SDS011;13860;52.370;6.764;2023-02-03T12:05:02;28.50;;;3.67;;
26098;SDS011;13860;52.370;6.764;2023-02-03T12:08:25;30.83;;;4.35;;
26098;SDS011;13860;52.370;6.764;2023-02-03T12:15:47;24.48;;;3.55;;
26098;SDS011;13860;52.370;6.764;2023-02-03T12:19:07;34.78;;;4.95;;
26098;SDS011;13860;52.370;6.764;2023-02-03T12:22:17;33.78;;;4.97;;
26098;SDS011;13860;52.370;6.764;2023-02-03T12:25:35;31.00;;;4.25;;
26098;SDS011;13860;52.370;6.764;2023-02-03T12:28:55;34.95;;;5.72;;
26098;SDS011;13860;52.370;6.764;2023-02-03T12:32:11;35.00;;;4.60;;
26098;SDS011;13860;52.370;6.764;2023-02-03T12:35:21;29.27;;;4.53;;
26098;SDS011;13860;52.370;6.764;2023-02-03T12:38:33;29.60;;;4.28;;
26098;SDS011;13860;52.370;6.764;2023-02-03T12:41:43;25.15;;;5.00;;
26098;SDS011;13860;52.370;6.764;2023-02-03T12:44:56;30.80;;;4.32;;
26098;SDS011;13860;52.370;6.764;2023-02-03T12:48:05;32.95;;;5.30;;
26098;SDS011;13860;52.370;6.764;2023-02-03T12:51:18;19.43;;;2.70;;
26098;SDS011;13860;52.370;6.764;2023-02-03T12:54:33;42.72;;;4.45;;
26098;SDS011;13860;52.370;6.764;2023-02-03T12:57:48;40.65;;;5.78;;
26098;SDS011;13860;52.370;6.764;2023-02-03T13:00:59;27.67;;;4.15;;
26098;SDS011;13860;52.370;6.764;2023-02-03T13:04:12;30.30;;;4.28;;
26098;SDS011;13860;52.370;6.764;2023-02-03T13:07:22;35.95;;;6.10;;
26098;SDS011;13860;52.370;6.764;2023-02-03T13:10:32;37.35;;;5.63;;
26098;SDS011;13860;52.370;6.764;2023-02-03T13:13:46;37.80;;;4.78;;
26098;SDS011;13860;52.370;6.764;2023-02-03T13:16:56;33.67;;;5.13;;
26098;SDS011;13860;52.370;6.764;2023-02-03T13:20:05;31.30;;;6.65;;
26098;SDS011;13860;52.370;6.764;2023-02-03T13:23:21;35.95;;;5.25;;
26098;SDS011;13860;52.370;6.764;2023-02-03T13:30:16;36.75;;;5.03;;
26098;SDS011;13860;52.370;6.764;2023-02-03T13:33:49;34.67;;;4.43;;
26098;SDS011;13860;52.370;6.764;2023-02-03T13:37:29;30.42;;;4.35;;
26098;SDS011;13860;52.370;6.764;2023-02-03T13:40:55;33.05;;;4.95;;
26098;SDS011;13860;52.370;6.764;2023-02-03T13:44:06;35.17;;;5.25;;
26098;SDS011;13860;52.370;6.764;2023-02-03T13:47:16;31.65;;;4.32;;
26098;SDS011;13860;52.370;6.764;2023-02-03T13:50:27;28.35;;;4.20;;
26098;SDS011;13860;52.370;6.764;2023-02-03T13:53:36;28.15;;;4.35;;
26098;SDS011;13860;52.370;6.764;2023-02-03T13:56:51;34.17;;;5.20;;
26098;SDS011;13860;52.370;6.764;2023-02-03T13:59:57;31.90;;;5.05;;
26098;SDS011;13860;52.370;6.764;2023-02-03T14:03:10;34.22;;;4.70;;
26098;SDS011;13860;52.370;6.764;2023-02-03T14:10:08;33.63;;;6.18;;
26098;SDS011;13860;52.370;6.764;2023-02-03T14:13:18;36.35;;;5.07;;
26098;SDS011;13860;52.370;6.764;2023-02-03T14:16:25;33.30;;;4.32;;
26098;SDS011;13860;52.370;6.764;2023-02-03T14:19:52;28.13;;;4.82;;
26098;SDS011;13860;52.370;6.764;2023-02-03T14:22:59;45.95;;;8.25;;
26098;SDS011;13860;52.370;6.764;2023-02-03T14:26:20;35.67;;;5.30;;
26098;SDS011;13860;52.370;6.764;2023-02-03T14:29:29;29.95;;;5.18;;
26098;SDS011;13860;52.370;6.764;2023-02-03T14:35:59;28.27;;;4.93;;
26098;SDS011;13860;52.370;6.764;2023-02-03T14:39:05;35.28;;;4.50;;
26098;SDS011;13860;52.370;6.764;2023-02-03T14:50:10;31.35;;;4.22;;
26098;SDS011;13860;52.370;6.764;2023-02-03T14:53:27;34.72;;;4.60;;
26098;SDS011;13860;52.370;6.764;2023-02-03T14:56:45;34.53;;;5.13;;
26098;SDS011;13860;52.370;6.764;2023-02-03T15:00:06;41.13;;;4.95;;
26098;SDS011;13860;52.370;6.764;2023-02-03T15:03:29;37.65;;;5.05;;
26098;SDS011;13860;52.370;6.764;2023-02-03T15:06:36;33.78;;;5.32;;
26098;SDS011;13860;52.370;6.764;2023-02-03T15:09:44;34.65;;;4.78;;
26098;SDS011;13860;52.370;6.764;2023-02-03T15:12:51;36.17;;;4.82;;
26098;SDS011;13860;52.370;6.764;2023-02-03T15:16:01;37.15;;;5.28;;
26098;SDS011;13860;52.370;6.764;2023-02-03T15:19:13;35.95;;;5.88;;
26098;SDS011;13860;52.370;6.764;2023-02-03T15:22:22;34.50;;;4.63;;
26098;SDS011;13860;52.370;6.764;2023-02-03T15:25:28;19.85;;;3.58;;
26098;SDS011;13860;52.370;6.764;2023-02-03T15:28:35;38.97;;;5.25;;
26098;SDS011;13860;52.370;6.764;2023-02-03T15:31:41;35.65;;;4.43;;
26098;SDS011;13860;52.370;6.764;2023-02-03T15:34:51;31.10;;;4.30;;
26098;SDS011;13860;52.370;6.764;2023-02-03T15:37:56;36.88;;;5.30;;
26098;SDS011;13860;52.370;6.764;2023-02-03T15:41:06;29.10;;;4.55;;
26098;SDS011;13860;52.370;6.764;2023-02-03T15:44:22;40.10;;;5.43;;
26098;SDS011;13860;52.370;6.764;2023-02-03T15:50:40;40.90;;;6.20;;
26098;SDS011;13860;52.370;6.764;2023-02-03T15:53:51;36.25;;;5.07;;
26098;SDS011;13860;52.370;6.764;2023-02-03T15:56:58;39.65;;;5.95;;
26098;SDS011;13860;52.370;6.764;2023-02-03T16:00:09;22.45;;;4.28;;
26098;SDS011;13860;52.370;6.764;2023-02-03T16:03:31;33.20;;;3.92;;
26098;SDS011;13860;52.370;6.764;2023-02-03T16:06:43;31.15;;;4.97;;
26098;SDS011;13860;52.370;6.764;2023-02-03T16:09:50;35.53;;;5.32;;
26098;SDS011;13860;52.370;6.764;2023-02-03T16:13:10;31.75;;;4.50;;
26098;SDS011;13860;52.370;6.764;2023-02-03T16:16:22;33.83;;;4.85;;
26098;SDS011;13860;52.370;6.764;2023-02-03T16:19:34;37.72;;;4.78;;
26098;SDS011;13860;52.370;6.764;2023-02-03T16:22:41;31.90;;;5.18;;
26098;SDS011;13860;52.370;6.764;2023-02-03T16:29:10;15.85;;;3.10;;
26098;SDS011;13860;52.370;6.764;2023-02-03T16:32:30;32.60;;;4.82;;
26098;SDS011;13860;52.370;6.764;2023-02-03T16:35:49;30.55;;;4.35;;
26098;SDS011;13860;52.370;6.764;2023-02-03T16:39:09;28.85;;;4.88;;
26098;SDS011;13860;52.370;6.764;2023-02-03T16:42:28;30.63;;;3.72;;
26098;SDS011;13860;52.370;6.764;2023-02-03T16:45:55;27.42;;;3.88;;
26098;SDS011;13860;52.370;6.764;2023-02-03T16:49:14;27.85;;;5.15;;
26098;SDS011;13860;52.370;6.764;2023-02-03T16:52:35;34.05;;;4.75;;
26098;SDS011;13860;52.370;6.764;2023-02-03T16:55:39;37.30;;;5.32;;
26098;SDS011;13860;52.370;6.764;2023-02-03T16:58:45;25.45;;;5.45;;
26098;SDS011;13860;52.370;6.764;2023-02-03T17:01:48;33.42;;;5.00;;
26098;SDS011;13860;52.370;6.764;2023-02-03T17:04:54;37.08;;;4.60;;
26098;SDS011;13860;52.370;6.764;2023-02-03T17:11:07;38.72;;;5.43;;
26098;SDS011;13860;52.370;6.764;2023-02-03T17:14:13;40.72;;;6.03;;
26098;SDS011;13860;52.370;6.764;2023-02-03T17:17:19;33.20;;;4.85;;
26098;SDS011;13860;52.370;6.764;2023-02-03T17:23:31;29.55;;;5.25;;
26098;SDS011;13860;52.370;6.764;2023-02-03T17:26:35;30.48;;;5.32;;
26098;SDS011;13860;52.370;6.764;2023-02-03T17:29:41;37.85;;;5.18;;
26098;SDS011;13860;52.370;6.764;2023-02-03T17:32:44;40.95;;;5.45;;
26098;SDS011;13860;52.370;6.764;2023-02-03T17:35:58;48.67;;;6.32;;
26098;SDS011;13860;52.370;6.764;2023-02-03T17:39:05;44.72;;;6.20;;
26098;SDS011;13860;52.370;6.764;2023-02-03T17:42:25;39.70;;;5.75;;
26098;SDS011;13860;52.370;6.764;2023-02-03T17:45:44;40.42;;;7.03;;
26098;SDS011;13860;52.370;6.764;2023-02-03T17:49:05;35.28;;;6.03;;
26098;SDS011;13860;52.370;6.764;2023-02-03T17:52:23;43.28;;;6.82;;
26098;SDS011;13860;52.370;6.764;2023-02-03T17:55:46;37.22;;;7.18;;
26098;SDS011;13860;52.370;6.764;2023-02-03T17:58:53;42.88;;;7.13;;
26098;SDS011;13860;52.370;6.764;2023-02-03T18:01:59;41.22;;;6.25;;
26098;SDS011;13860;52.370;6.764;2023-02-03T18:05:04;44.35;;;4.82;;
26098;SDS011;13860;52.370;6.764;2023-02-03T18:08:10;35.78;;;4.50;;
26098;SDS011;13860;52.370;6.764;2023-02-03T18:11:19;45.47;;;7.28;;
26098;SDS011;13860;52.370;6.764;2023-02-03T18:14:25;33.08;;;6.30;;
26098;SDS011;13860;52.370;6.764;2023-02-03T18:20:35;40.75;;;6.13;;
26098;SDS011;13860;52.370;6.764;2023-02-03T18:23:39;26.95;;;4.40;;
26098;SDS011;13860;52.370;6.764;2023-02-03T18:26:48;37.13;;;4.68;;
26098;SDS011;13860;52.370;6.764;2023-02-03T18:29:53;41.10;;;6.03;;
26098;SDS011;13860;52.370;6.764;2023-02-03T18:32:59;37.28;;;4.75;;
26098;SDS011;13860;52.370;6.764;2023-02-03T18:36:04;39.13;;;4.93;;
26098;SDS011;13860;52.370;6.764;2023-02-03T18:39:11;56.85;;;5.85;;
26098;SDS011;13860;52.370;6.764;2023-02-03T18:42:18;41.33;;;5.60;;
26098;SDS011;13860;52.370;6.764;2023-02-03T18:45:25;45.90;;;5.25;;
26098;SDS011;13860;52.370;6.764;2023-02-03T18:48:29;31.13;;;5.05;;
26098;SDS011;13860;52.370;6.764;2023-02-03T18:51:35;42.08;;;5.05;;
26098;SDS011;13860;52.370;6.764;2023-02-03T18:54:39;35.67;;;4.97;;
26098;SDS011;13860;52.370;6.764;2023-02-03T18:57:47;41.35;;;6.35;;
26098;SDS011;13860;52.370;6.764;2023-02-03T19:00:51;46.25;;;6.03;;
26098;SDS011;13860;52.370;6.764;2023-02-03T19:03:58;42.53;;;6.20;;
26098;SDS011;13860;52.370;6.764;2023-02-03T19:07:03;51.22;;;6.95;;
26098;SDS011;13860;52.370;6.764;2023-02-03T19:10:09;48.88;;;5.80;;
26098;SDS011;13860;52.370;6.764;2023-02-03T19:13:15;47.05;;;6.15;;
26098;SDS011;13860;52.370;6.764;2023-02-03T19:16:21;38.50;;;5.15;;
26098;SDS011;13860;52.370;6.764;2023-02-03T19:19:25;37.97;;;6.18;;
26098;SDS011;13860;52.370;6.764;2023-02-03T19:22:31;39.60;;;5.40;;
26098;SDS011;13860;52.370;6.764;2023-02-03T19:25:35;47.63;;;5.72;;
26098;SDS011;13860;52.370;6.764;2023-02-03T19:28:43;41.95;;;5.18;;
26098;SDS011;13860;52.370;6.764;2023-02-03T19:31:47;47.20;;;5.85;;
26098;SDS011;13860;52.370;6.764;2023-02-03T19:34:53;45.65;;;5.80;;
26098;SDS011;13860;52.370;6.764;2023-02-03T19:37:57;30.80;;;5.60;;
26098;SDS011;13860;52.370;6.764;2023-02-03T19:41:04;50.35;;;7.40;;
26098;SDS011;13860;52.370;6.764;2023-02-03T19:44:10;45.00;;;6.97;;
26098;SDS011;13860;52.370;6.764;2023-02-03T19:47:18;36.05;;;5.75;;
26098;SDS011;13860;52.370;6.764;2023-02-03T19:50:21;35.95;;;4.75;;
26098;SDS011;13860;52.370;6.764;2023-02-03T19:53:27;48.35;;;7.82;;
26098;SDS011;13860;52.370;6.764;2023-02-03T19:59:39;34.42;;;5.43;;
26098;SDS011;13860;52.370;6.764;2023-02-03T20:02:42;40.47;;;5.88;;
26098;SDS011;13860;52.370;6.764;2023-02-03T20:05:49;31.25;;;5.65;;